Time;durP1;ratioP1;P1;durP2;ratioP2;P2;SDS_P1;SDS_P2;PMS_P1;PMS_P2;Temp;Humidity;BMP_temperature;BMP_pressure;BME280_temperature;BME280_humidity;BME280_pressure;Samples;Min_cycle;Max_cycle;Signal;HPM_P1;HPM_P2
2022/11/14 00:00:41;;;;;;;26.27;11.85;;;6.80;99.90;;;;;;5070747;28;20102;-75
2022/11/14 00:03:08;;;;;;;26.80;10.55;;;6.80;99.90;;;;;;5070676;28;20037;-76
2022/11/14 00:05:40;;;;;;;24.25;10.52;;;6.80;99.90;;;;;;5087374;28;20048;-75
2022/11/14 00:08:13;;;;;;;27.73;11.23;;;6.80;99.90;;;;;;5070784;28;20476;-76
2022/11/14 00:10:40;;;;;;;27.50;11.10;;;6.90;99.90;;;;;;5070587;28;20041;-75
2022/11/14 00:13:07;;;;;;;25.98;11.07;;;6.80;99.90;;;;;;5087163;28;20086;-76
2022/11/14 00:15:33;;;;;;;24.48;10.90;;;6.90;99.90;;;;;;5087063;28;20405;-76
2022/11/14 00:18:00;;;;;;;27.60;11.75;;;6.90;99.90;;;;;;5104294;28;20041;-75
2022/11/14 00:20:27;;;;;;;27.08;10.68;;;6.90;99.90;;;;;;5120732;28;20052;-75
2022/11/14 00:22:53;;;;;;;26.67;12.05;;;7.70;99.90;;;;;;5120400;28;20049;-75
2022/11/14 00:25:20;;;;;;;24.02;11.43;;;7.40;99.90;;;;;;5070678;28;20071;-76
2022/11/14 00:27:47;;;;;;;25.30;11.63;;;6.90;99.90;;;;;;5070561;28;20512;-76
2022/11/14 00:30:14;;;;;;;26.35;11.15;;;6.90;99.90;;;;;;5070696;28;20555;-76
2022/11/14 00:32:40;;;;;;;26.10;11.25;;;6.90;99.90;;;;;;5120356;28;20045;-76
2022/11/14 00:35:10;;;;;;;26.63;12.55;;;6.90;99.90;;;;;;5120319;28;20060;-76
2022/11/14 00:37:37;;;;;;;30.48;12.23;;;6.90;99.90;;;;;;5069848;28;20045;-76
2022/11/14 00:40:04;;;;;;;31.55;13.52;;;6.90;99.90;;;;;;5120731;28;21661;-76
2022/11/14 00:42:31;;;;;;;28.52;13.65;;;6.80;99.90;;;;;;5103539;28;20123;-76
2022/11/14 00:44:57;;;;;;;33.25;13.77;;;7.10;99.90;;;;;;5086652;28;20239;-75
2022/11/14 00:47:24;;;;;;;31.40;13.23;;;6.80;99.90;;;;;;5086749;28;20043;-75
2022/11/14 00:49:51;;;;;;;31.00;14.15;;;6.80;99.90;;;;;;5102845;28;20041;-75
2022/11/14 00:52:17;;;;;;;35.08;14.98;;;7.10;99.90;;;;;;5086355;28;20041;-75
2022/11/14 00:54:44;;;;;;;31.48;14.30;;;6.80;99.90;;;;;;5086046;28;20041;-75
2022/11/14 00:57:11;;;;;;;36.95;15.98;;;7.70;99.90;;;;;;5103037;28;20448;-76
2022/11/14 00:59:37;;;;;;;32.20;14.32;;;6.70;99.90;;;;;;5086151;28;20080;-76
2022/11/14 01:02:04;;;;;;;33.58;14.82;;;6.70;99.90;;;;;;5086364;28;20045;-76
2022/11/14 01:04:31;;;;;;;35.00;15.52;;;6.60;99.90;;;;;;5086817;28;20535;-76
2022/11/14 01:06:57;;;;;;;29.85;13.80;;;6.60;99.90;;;;;;5102791;28;20757;-76
2022/11/14 01:09:24;;;;;;;34.47;14.90;;;7.40;99.90;;;;;;5086150;28;20056;-76
2022/11/14 01:11:51;;;;;;;38.13;15.75;;;7.20;99.90;;;;;;5085760;28;20106;-76
2022/11/14 01:14:17;;;;;;;30.90;14.50;;;7.20;99.90;;;;;;5086727;28;20037;-76
2022/11/14 01:16:44;;;;;;;34.33;14.95;;;6.60;99.90;;;;;;5069689;28;20033;-76
2022/11/14 01:19:11;;;;;;;31.77;14.82;;;6.60;99.90;;;;;;5069793;28;20102;-76
2022/11/14 01:21:37;;;;;;;34.35;15.68;;;6.60;99.90;;;;;;5069547;28;20037;-76
2022/11/14 01:24:04;;;;;;;30.52;13.95;;;6.60;99.90;;;;;;5085943;28;20186;-76
2022/11/14 01:26:31;;;;;;;34.65;15.30;;;6.60;99.90;;;;;;5085832;28;20056;-76
2022/11/14 01:28:58;;;;;;;40.13;16.25;;;6.60;99.90;;;;;;5085759;28;20489;-76
2022/11/14 01:31:25;;;;;;;33.22;14.13;;;6.60;99.90;;;;;;5085788;28;20509;-75
2022/11/14 01:33:53;;;;;;;36.40;14.65;;;6.60;99.90;;;;;;5102532;28;20124;-75
2022/11/14 01:36:20;;;;;;;34.50;14.48;;;6.60;99.90;;;;;;5119526;28;20524;-75
2022/11/14 01:38:52;;;;;;;34.67;14.07;;;7.60;99.90;;;;;;5102429;28;20509;-75
2022/11/14 01:41:19;;;;;;;36.97;15.68;;;6.60;99.90;;;;;;5119687;28;20041;-75
2022/11/14 01:43:46;;;;;;;33.25;14.60;;;6.60;99.90;;;;;;5085365;28;20076;-76
2022/11/14 01:46:19;;;;;;;29.98;13.20;;;6.60;99.90;;;;;;5101899;28;20416;-76
2022/11/14 01:49:10;;;;;;;35.35;14.35;;;6.50;99.90;;;;;;5119005;28;20183;-75
2022/11/14 01:51:45;;;;;;;33.65;13.85;;;6.50;99.90;;;;;;5102050;28;20120;-75
2022/11/14 01:54:24;;;;;;;31.73;13.85;;;6.50;99.90;;;;;;5119025;28;20059;-75
2022/11/14 01:57:01;;;;;;;32.33;13.68;;;6.50;99.90;;;;;;5068823;28;20041;-75
2022/11/14 01:59:33;;;;;;;41.08;13.10;;;6.50;99.90;;;;;;5069070;28;20029;-75
2022/11/14 02:02:04;;;;;;;33.90;14.35;;;6.90;99.90;;;;;;5068902;28;20079;-75
2022/11/14 02:04:34;;;;;;;28.75;12.85;;;6.50;99.90;;;;;;5069101;28;20037;-75
2022/11/14 02:07:03;;;;;;;38.40;13.55;;;6.60;99.90;;;;;;5118994;28;20040;-76
2022/11/14 02:09:34;;;;;;;31.23;13.00;;;6.90;99.90;;;;;;5118976;28;20098;-76
2022/11/14 02:12:04;;;;;;;32.83;13.50;;;6.50;99.90;;;;;;5068394;28;20425;-76
2022/11/14 02:14:33;;;;;;;32.65;13.82;;;6.50;99.90;;;;;;5068979;28;20048;-76
2022/11/14 02:16:59;;;;;;;30.95;13.15;;;6.50;99.90;;;;;;5085214;28;20447;-75
2022/11/14 02:19:42;;;;;;;30.50;12.30;;;6.90;99.90;;;;;;5102410;28;20119;-76
2022/11/14 02:22:08;;;;;;;32.20;13.43;;;6.50;99.90;;;;;;5101690;28;20113;-76
2022/11/14 02:24:35;;;;;;;31.25;13.07;;;6.50;99.90;;;;;;5085516;28;20464;-76
2022/11/14 02:27:04;;;;;;;28.65;12.77;;;6.50;99.90;;;;;;5068284;28;20134;-76
2022/11/14 02:29:32;;;;;;;33.58;13.85;;;6.50;99.90;;;;;;5068716;28;20677;-75
2022/11/14 02:31:59;;;;;;;33.47;13.32;;;6.50;99.90;;;;;;5068349;28;20048;-75
2022/11/14 02:34:26;;;;;;;32.67;13.38;;;6.50;99.90;;;;;;5118935;28;20120;-75
2022/11/14 02:36:54;;;;;;;29.23;13.43;;;6.60;99.90;;;;;;5101698;28;20137;-76
2022/11/14 02:39:21;;;;;;;29.33;13.25;;;6.60;99.90;;;;;;5118846;28;20068;-76
2022/11/14 02:41:49;;;;;;;30.63;14.23;;;6.60;99.90;;;;;;5102088;28;20084;-76
2022/11/14 02:44:16;;;;;;;31.58;13.55;;;6.90;99.90;;;;;;5084738;28;20104;-76
2022/11/14 02:46:43;;;;;;;33.22;13.25;;;6.70;99.90;;;;;;5102332;28;20040;-75
2022/11/14 02:49:09;;;;;;;32.35;14.13;;;6.60;99.90;;;;;;5084655;28;20052;-75
2022/11/14 02:51:36;;;;;;;30.63;13.00;;;7.40;99.90;;;;;;5118982;28;20489;-76
2022/11/14 02:54:03;;;;;;;31.02;14.32;;;6.70;99.90;;;;;;5068047;28;20043;-75
2022/11/14 02:56:30;;;;;;;32.33;14.40;;;6.70;99.90;;;;;;5068571;28;20036;-75
2022/11/14 02:58:57;;;;;;;27.92;13.35;;;6.90;99.90;;;;;;5072188;28;20485;-75
2022/11/14 03:01:24;;;;;;;33.45;13.85;;;6.70;99.90;;;;;;5122739;28;20098;-75
2022/11/14 03:03:51;;;;;;;33.38;13.85;;;6.80;99.90;;;;;;5089288;28;20041;-75
2022/11/14 03:06:17;;;;;;;35.35;14.35;;;6.80;99.90;;;;;;5089189;28;20048;-75
2022/11/14 03:08:44;;;;;;;35.72;14.35;;;6.70;99.90;;;;;;5092505;28;20113;-75
2022/11/14 03:11:11;;;;;;;31.05;13.45;;;7.00;99.90;;;;;;5059117;28;20040;-76
2022/11/14 03:13:37;;;;;;;33.45;15.18;;;6.80;99.90;;;;;;5056257;28;20168;-75
2022/11/14 03:16:10;;;;;;;33.45;14.70;;;6.80;99.90;;;;;;5088325;28;20048;-76
2022/11/14 03:18:37;;;;;;;23.70;12.07;;;6.80;99.90;;;;;;5122305;28;20554;-76
2022/11/14 03:21:11;;;;;;;32.92;12.95;;;6.80;99.90;;;;;;5105229;28;20049;-75
2022/11/14 03:23:38;;;;;;;30.20;14.00;;;6.80;99.90;;;;;;5071996;28;20486;-76
2022/11/14 03:26:07;;;;;;;32.40;14.35;;;7.90;99.90;;;;;;5087891;28;20037;-76
2022/11/14 03:28:35;;;;;;;29.70;14.10;;;6.80;99.90;;;;;;5122144;28;20080;-76
2022/11/14 03:31:01;;;;;;;28.85;13.75;;;6.90;99.90;;;;;;5088411;28;20095;-76
2022/11/14 03:33:28;;;;;;;33.10;14.45;;;6.80;99.90;;;;;;5104822;28;20076;-75
2022/11/14 03:35:55;;;;;;;35.95;13.73;;;6.80;99.90;;;;;;5087955;28;20049;-76
2022/11/14 03:38:22;;;;;;;30.67;14.82;;;6.80;99.90;;;;;;5088066;28;20037;-76
2022/11/14 03:40:50;;;;;;;32.83;13.93;;;6.80;99.90;;;;;;5088241;28;20077;-76
2022/11/14 03:43:18;;;;;;;37.85;15.63;;;6.80;99.90;;;;;;5104331;28;20051;-76
2022/11/14 03:45:46;;;;;;;35.95;14.95;;;7.20;99.90;;;;;;5104258;28;20481;-75
2022/11/14 03:48:13;;;;;;;35.30;15.00;;;7.10;99.90;;;;;;5087310;28;20041;-75
2022/11/14 03:50:41;;;;;;;35.72;15.82;;;6.70;99.90;;;;;;5071001;28;20041;-75
2022/11/14 03:53:08;;;;;;;35.53;17.13;;;6.70;99.90;;;;;;5070821;28;20401;-75
2022/11/14 03:55:35;;;;;;;37.95;15.05;;;7.20;99.90;;;;;;5070910;28;20037;-76
2022/11/14 03:58:01;;;;;;;32.85;14.85;;;6.80;99.90;;;;;;5104806;28;20123;-76
2022/11/14 04:00:28;;;;;;;36.20;16.63;;;7.00;99.90;;;;;;5071131;28;20037;-75
2022/11/14 04:02:56;;;;;;;33.80;15.70;;;6.80;99.90;;;;;;5088059;28;20036;-76
2022/11/14 04:05:23;;;;;;;34.50;15.23;;;6.70;99.90;;;;;;5086969;28;20782;-76
2022/11/14 04:07:50;;;;;;;32.22;14.57;;;6.70;99.90;;;;;;5104515;28;20095;-75
2022/11/14 04:10:17;;;;;;;34.15;15.52;;;7.70;99.90;;;;;;5103444;28;20036;-76
2022/11/14 04:12:48;;;;;;;35.03;15.80;;;6.70;99.90;;;;;;5104095;28;20049;-75
2022/11/14 04:15:16;;;;;;;33.60;15.50;;;7.00;99.90;;;;;;5103836;28;20044;-76
2022/11/14 04:17:43;;;;;;;32.58;14.98;;;6.60;99.90;;;;;;5070913;28;20112;-76
2022/11/14 04:20:11;;;;;;;35.00;14.73;;;6.60;99.90;;;;;;5070830;28;20040;-76
2022/11/14 04:22:38;;;;;;;33.38;14.23;;;6.60;99.90;;;;;;5038415;28;20047;-76
2022/11/14 04:25:06;;;;;;;31.55;13.18;;;6.60;99.90;;;;;;5054228;28;20128;-76
2022/11/14 04:27:33;;;;;;;28.63;12.82;;;6.60;99.90;;;;;;5070698;28;20044;-76
2022/11/14 04:30:00;;;;;;;28.73;13.48;;;6.60;99.90;;;;;;5103660;28;20123;-75
2022/11/14 04:32:26;;;;;;;26.65;12.68;;;6.80;99.90;;;;;;5086677;28;20675;-75
2022/11/14 04:34:53;;;;;;;32.25;13.45;;;6.80;99.90;;;;;;5103642;28;20057;-75
2022/11/14 04:37:20;;;;;;;28.85;13.25;;;6.50;99.90;;;;;;5069875;28;20037;-75
2022/11/14 04:39:49;;;;;;;30.85;12.85;;;6.50;99.90;;;;;;5070583;28;20394;-75
2022/11/14 04:42:15;;;;;;;31.10;13.35;;;6.50;99.90;;;;;;5086503;28;20044;-76
2022/11/14 04:44:42;;;;;;;31.85;14.27;;;6.50;99.90;;;;;;5103500;28;20066;-75
2022/11/14 04:47:09;;;;;;;31.00;13.93;;;6.50;99.90;;;;;;5086591;28;20048;-75
2022/11/14 04:49:35;;;;;;;29.98;13.15;;;6.60;99.90;;;;;;5070145;28;20610;-75
2022/11/14 04:52:02;;;;;;;32.65;13.40;;;6.50;99.90;;;;;;5086716;28;20067;-75
2022/11/14 04:54:29;;;;;;;31.20;12.35;;;6.40;99.90;;;;;;5086143;28;20040;-75
2022/11/14 04:56:56;;;;;;;30.95;13.80;;;6.50;99.90;;;;;;5103576;28;20036;-75
2022/11/14 04:59:22;;;;;;;29.55;13.60;;;7.40;99.90;;;;;;5069797;28;20040;-75
2022/11/14 05:01:52;;;;;;;29.92;13.57;;;6.50;99.90;;;;;;5086417;28;20037;-75
2022/11/14 05:04:21;;;;;;;31.20;13.88;;;7.10;99.90;;;;;;5086260;28;20047;-76
2022/11/14 05:06:48;;;;;;;32.00;13.80;;;6.40;99.90;;;;;;5103298;28;20408;-76
2022/11/14 05:09:15;;;;;;;24.70;12.35;;;6.40;99.90;;;;;;5102806;28;20037;-76
2022/11/14 05:11:41;;;;;;;28.88;12.20;;;7.30;99.90;;;;;;5069653;28;20044;-76
2022/11/14 05:14:08;;;;;;;29.15;13.05;;;6.50;99.90;;;;;;5069845;28;20099;-76
2022/11/14 05:16:35;;;;;;;30.20;13.30;;;6.40;99.90;;;;;;5069236;28;20036;-76
2022/11/14 05:19:02;;;;;;;29.88;13.40;;;6.40;99.90;;;;;;5086125;28;20036;-76
2022/11/14 05:21:28;;;;;;;33.25;13.68;;;6.40;99.90;;;;;;5101427;28;20044;-75
2022/11/14 05:23:55;;;;;;;29.52;12.20;;;7.00;99.90;;;;;;5086187;28;20040;-75
2022/11/14 05:26:22;;;;;;;28.95;13.15;;;6.30;99.90;;;;;;5069541;28;20048;-75
2022/11/14 05:28:48;;;;;;;32.72;13.35;;;6.30;99.90;;;;;;5069220;28;20044;-75
2022/11/14 05:31:18;;;;;;;33.47;13.30;;;6.30;99.90;;;;;;5085860;28;20051;-75
2022/11/14 05:33:48;;;;;;;33.15;14.07;;;6.30;99.90;;;;;;5085668;28;20033;-75
2022/11/14 05:36:15;;;;;;;35.53;13.77;;;6.30;99.90;;;;;;5085263;28;20081;-75
2022/11/14 05:38:42;;;;;;;35.95;14.05;;;6.30;99.90;;;;;;5102316;28;20040;-76
2022/11/14 05:41:15;;;;;;;33.03;13.82;;;6.40;99.90;;;;;;5089127;28;20055;-75
2022/11/14 05:43:42;;;;;;;32.00;13.90;;;6.30;99.90;;;;;;5100202;28;20080;-76
2022/11/14 05:46:11;;;;;;;33.35;13.10;;;6.70;99.90;;;;;;5099449;28;20036;-74
2022/11/14 05:48:39;;;;;;;34.30;13.23;;;6.30;99.90;;;;;;5069054;28;20032;-75
2022/11/14 05:51:07;;;;;;;35.33;13.45;;;6.20;99.90;;;;;;5069198;28;20037;-75
2022/11/14 05:53:33;;;;;;;34.00;14.98;;;6.20;99.90;;;;;;5085604;28;20076;-75
2022/11/14 05:56:06;;;;;;;39.92;14.45;;;6.50;99.90;;;;;;5069090;28;20130;-76
2022/11/14 05:58:34;;;;;;;34.75;14.35;;;6.20;99.90;;;;;;5085151;28;20037;-76
2022/11/14 06:01:09;;;;;;;33.13;13.95;;;6.20;99.90;;;;;;5069035;28;20576;-75
2022/11/14 06:03:42;;;;;;;36.78;14.77;;;6.20;99.90;;;;;;5068815;28;20051;-76
2022/11/14 06:06:12;;;;;;;39.03;13.68;;;6.20;99.90;;;;;;5101794;28;20040;-75
2022/11/14 06:08:40;;;;;;;33.53;13.50;;;6.90;99.90;;;;;;5068734;28;20799;-75
2022/11/14 06:11:09;;;;;;;34.08;15.00;;;5.80;99.90;;;;;;5101733;28;20102;-76
2022/11/14 06:13:37;;;;;;;34.80;13.98;;;7.40;99.90;;;;;;5101458;28;20049;-76
2022/11/14 06:16:10;;;;;;;37.03;13.63;;;6.10;99.90;;;;;;5119174;28;20136;-75
2022/11/14 06:18:37;;;;;;;37.42;14.15;;;6.10;99.90;;;;;;5068599;28;20033;-76
2022/11/14 06:21:14;;;;;;;36.03;15.07;;;6.80;99.90;;;;;;5068371;28;20045;-76
2022/11/14 06:23:42;;;;;;;37.13;14.75;;;6.10;99.90;;;;;;5068384;28;20080;-76
2022/11/14 06:26:30;;;;;;;38.35;15.40;;;6.80;99.90;;;;;;5068932;28;20068;-76
2022/11/14 06:28:57;;;;;;;34.00;13.90;;;6.10;99.90;;;;;;5118668;28;20076;-76
2022/11/14 06:31:24;;;;;;;36.13;14.88;;;6.10;99.90;;;;;;5068236;28;20041;-76
2022/11/14 06:33:51;;;;;;;33.33;13.75;;;6.10;99.90;;;;;;5089484;28;20037;-76
2022/11/14 06:36:18;;;;;;;36.60;15.32;;;6.30;99.90;;;;;;5105546;28;20049;-75
2022/11/14 06:38:45;;;;;;;37.08;14.90;;;6.00;99.90;;;;;;5105369;28;20504;-75
2022/11/14 06:41:14;;;;;;;36.70;14.52;;;6.00;99.90;;;;;;5105657;28;20543;-75
2022/11/14 06:43:43;;;;;;;38.88;15.10;;;6.00;99.90;;;;;;5122279;28;20811;-75
2022/11/14 06:46:11;;;;;;;36.30;14.40;;;6.20;99.90;;;;;;5088808;28;20072;-75
2022/11/14 06:48:38;;;;;;;37.83;15.13;;;6.10;99.90;;;;;;5121635;28;20051;-75
2022/11/14 06:51:06;;;;;;;30.63;13.95;;;6.50;99.90;;;;;;5088073;28;20472;-75
2022/11/14 06:53:35;;;;;;;37.08;15.18;;;6.00;99.90;;;;;;5121750;28;20493;-75
2022/11/14 06:56:06;;;;;;;37.55;14.70;;;6.00;99.90;;;;;;5105099;28;20037;-76
2022/11/14 06:58:35;;;;;;;31.77;14.35;;;6.00;99.90;;;;;;5104707;28;20091;-76
2022/11/14 07:01:19;;;;;;;37.65;14.13;;;6.00;99.90;;;;;;5071221;28;20090;-75
2022/11/14 07:03:47;;;;;;;35.25;13.45;;;6.10;99.90;;;;;;5071408;28;20127;-76
2022/11/14 07:06:19;;;;;;;29.67;12.63;;;6.50;99.90;;;;;;5088044;28;20045;-75
2022/11/14 07:08:46;;;;;;;34.70;13.93;;;6.10;99.90;;;;;;5071420;28;20080;-75
2022/11/14 07:11:25;;;;;;;38.47;14.32;;;6.00;99.90;;;;;;5104830;28;20072;-75
2022/11/14 07:13:56;;;;;;;38.00;14.05;;;6.00;99.90;;;;;;5084752;28;20041;-75
2022/11/14 07:16:28;;;;;;;34.15;14.05;;;6.00;99.90;;;;;;5068766;28;20043;-75
2022/11/14 07:18:58;;;;;;;37.28;13.80;;;6.00;99.90;;;;;;5051671;28;20041;-75
